VABB/BOM METAR and TAF weather

Enter ICAO airport designator
Station Type Date Time Source
VABB METAR 2024/06/16 09:00 UTC NOAA

VABB 160900Z 27008KT 4000 HZ FEW020 FEW025TCU SCT100 32/24 Q1004 NOSIG


Station Type Date Time Source
VABB Decoded METAR 2024/06/16 09:00 UTC NOAA

Bombay / Santacruz, India (VABB) 19-07N 072-51E 14M
Jun 16, 2024 - 05:00 AM EDT / 2024.06.16 0900 UTC
Wind: from the W (270 degrees) at 9 MPH (8 KT):0
Visibility: 2 mile(s):0
Sky conditions: partly cloudy
Weather: haze; Towering cumulus clouds observed
Temperature: 89 F (32 C)
Heat index: 98.4 F (36.9 C):1
Dew Point: 75 F (24 C)
Relative Humidity: 62%
Pressure (altimeter): 29.65 in. Hg (1004 hPa)
ob: VABB 160900Z 27008KT 4000 HZ FEW020 FEW025TCU SCT100 32/24 Q1004 NOSIG
cycle: 9

Station Type Date Time Source
VABB TAF 2024/06/16 09:00 UTC NOAA